Time;durP1;ratioP1;P1;durP2;ratioP2;P2;SDS_P1;SDS_P2;PMS_P1;PMS_P2;Temp;Humidity;BMP_temperature;BMP_pressure;BME280_temperature;BME280_humidity;BME280_pressure;Samples;Min_cycle;Max_cycle;Signal;HPM_P1;HPM_P2
2022/12/01 00:00:28;;;;;;;;;;;;;;;5.44;100.00;102642.47;5047182;28;19917;-61
2022/12/01 00:02:53;;;;;;;;;;;;;;;5.43;100.00;102640.75;5049656;28;19912;-61
2022/12/01 00:05:19;;;;;;;;;;;;;;;5.41;100.00;102637.31;5050491;28;19915;-61
2022/12/01 00:07:46;;;;;;;;;;;;;;;5.42;100.00;102633.56;5048364;28;19917;-61
2022/12/01 00:10:27;;;;;;;;;;;;;;;5.45;100.00;102638.72;5046792;28;19916;-61
2022/12/01 00:12:53;;;;;;;;;;;;;;;5.42;100.00;102636.28;5049633;28;19924;-61
2022/12/01 00:15:18;;;;;;;;;;;;;;;6.03;100.00;102632.84;5049195;28;19944;-61
2022/12/01 00:17:44;;;;;;;;;;;;;;;5.58;100.00;102635.63;5047907;28;19917;-62
2022/12/01 00:20:10;;;;;;;;;;;;;;;5.60;100.00;102633.59;5050089;28;19928;-61
2022/12/01 00:22:35;;;;;;;;;;;;;;;5.52;100.00;102633.50;5049320;28;20011;-61
2022/12/01 00:25:00;;;;;;;;;;;;;;;5.93;100.00;102624.78;5048940;28;19931;-62
2022/12/01 00:27:25;;;;;;;;;;;;;;;5.46;100.00;102632.25;5048197;28;20419;-60
2022/12/01 00:29:50;;;;;;;;;;;;;;;5.98;100.00;102635.19;5048949;28;19913;-60
2022/12/01 00:32:16;;;;;;;;;;;;;;;5.42;100.00;102633.56;5036746;28;19948;-60
2022/12/01 00:34:41;;;;;;;;;;;;;;;5.37;100.00;102641.34;5045136;28;20005;-61
2022/12/01 00:37:06;;;;;;;;;;;;;;;5.34;100.00;102637.06;5048343;28;19931;-60
2022/12/01 00:39:31;;;;;;;;;;;;;;;5.82;100.00;102630.41;5048502;28;20355;-60
2022/12/01 00:41:56;;;;;;;;;;;;;;;5.38;100.00;102637.63;5046763;28;20270;-62
2022/12/01 00:44:21;;;;;;;;;;;;;;;5.31;100.00;102631.91;5048799;28;19917;-60
2022/12/01 00:46:47;;;;;;;;;;;;;;;5.53;100.00;102630.66;5048515;28;19920;-61
2022/12/01 00:49:12;;;;;;;;;;;;;;;5.86;100.00;102636.41;5048012;28;19951;-61
2022/12/01 00:51:37;;;;;;;;;;;;;;;5.59;100.00;102632.75;5046122;28;20329;-61
2022/12/01 00:54:03;;;;;;;;;;;;;;;5.33;100.00;102638.09;5047691;28;19970;-61
2022/12/01 00:56:28;;;;;;;;;;;;;;;5.34;100.00;102631.63;5048286;28;19978;-61
2022/12/01 00:58:53;;;;;;;;;;;;;;;5.27;100.00;102644.16;5049193;28;19912;-61
2022/12/01 01:01:18;;;;;;;;;;;;;;;5.27;100.00;102629.63;5049165;28;20314;-61
2022/12/01 01:03:44;;;;;;;;;;;;;;;5.25;100.00;102631.66;5045797;28;20007;-61
2022/12/01 01:06:10;;;;;;;;;;;;;;;5.24;100.00;102639.00;5046014;28;19955;-60
2022/12/01 01:08:36;;;;;;;;;;;;;;;5.24;100.00;102644.44;5048978;28;19928;-61
2022/12/01 01:11:01;;;;;;;;;;;;;;;5.30;100.00;102643.81;5049155;28;19909;-62
2022/12/01 01:13:27;;;;;;;;;;;;;;;5.24;100.00;102649.88;5047236;28;19931;-61
2022/12/01 01:15:59;;;;;;;;;;;;;;;5.22;100.00;102649.19;5045410;28;19920;-60
2022/12/01 01:18:24;;;;;;;;;;;;;;;5.49;100.00;102636.56;5048428;28;20503;-61
2022/12/01 01:21:01;;;;;;;;;;;;;;;5.29;100.00;102650.28;5048594;28;19959;-60
2022/12/01 01:23:26;;;;;;;;;;;;;;;5.31;100.00;102647.41;5048426;28;19924;-60
2022/12/01 01:25:51;;;;;;;;;;;;;;;5.36;100.00;102650.53;5047739;28;19912;-61
2022/12/01 01:28:17;;;;;;;;;;;;;;;5.45;100.00;102647.75;5053299;28;20012;-61
2022/12/01 01:30:42;;;;;;;;;;;;;;;5.29;100.00;102654.88;5047204;28;19916;-60
2022/12/01 01:33:07;;;;;;;;;;;;;;;5.28;100.00;102653.19;5047902;28;19921;-61
2022/12/01 01:35:32;;;;;;;;;;;;;;;5.28;100.00;102664.06;5047161;28;19917;-61
2022/12/01 01:37:57;;;;;;;;;;;;;;;5.30;100.00;102670.22;5047417;28;19924;-61
2022/12/01 01:40:22;;;;;;;;;;;;;;;5.31;100.00;102670.06;5047638;28;19958;-61
2022/12/01 01:42:48;;;;;;;;;;;;;;;5.27;100.00;102674.13;5049438;28;19919;-60
2022/12/01 01:45:18;;;;;;;;;;;;;;;5.86;100.00;102669.13;5048235;28;19917;-61
2022/12/01 01:47:43;;;;;;;;;;;;;;;5.42;100.00;102669.00;5047779;28;20283;-61
2022/12/01 01:50:10;;;;;;;;;;;;;;;5.88;100.00;102668.00;5045068;28;19917;-61
2022/12/01 01:52:37;;;;;;;;;;;;;;;5.50;100.00;102668.25;5046740;28;19916;-61
2022/12/01 01:55:02;;;;;;;;;;;;;;;5.57;100.00;102661.16;5046478;28;19917;-61
2022/12/01 01:57:29;;;;;;;;;;;;;;;5.34;100.00;102663.47;5047321;28;19917;-61
2022/12/01 01:59:58;;;;;;;;;;;;;;;5.29;100.00;102671.22;5047965;28;19986;-61
2022/12/01 02:02:24;;;;;;;;;;;;;;;5.28;100.00;102670.38;5045315;28;19917;-61
2022/12/01 02:04:52;;;;;;;;;;;;;;;5.28;100.00;102666.81;5044601;28;19924;-62
2022/12/01 02:07:18;;;;;;;;;;;;;;;5.27;100.00;102665.06;5047503;28;20019;-61
2022/12/01 02:09:44;;;;;;;;;;;;;;;5.25;100.00;102664.38;5046874;28;20003;-61
2022/12/01 02:12:28;;;;;;;;;;;;;;;5.67;100.00;102659.22;5046962;28;19916;-61
2022/12/01 02:15:22;;;;;;;;;;;;;;;5.68;100.00;102661.81;5039177;28;19963;-61
2022/12/01 02:18:06;;;;;;;;;;;;;;;5.37;100.00;102664.03;4991092;28;20883;-61
2022/12/01 02:20:44;;;;;;;;;;;;;;;5.29;100.00;102671.22;5035866;28;19924;-61
2022/12/01 02:23:18;;;;;;;;;;;;;;;5.33;100.00;102669.94;5044819;28;19920;-61
2022/12/01 02:25:44;;;;;;;;;;;;;;;5.27;100.00;102665.94;5046159;28;19944;-61
2022/12/01 02:31:03;;;;;;;;;;;;;;;5.24;100.00;102668.97;4342098;26;20011;-61
2022/12/01 02:33:34;;;;;;;;;;;;;;;5.23;100.00;102671.84;5006706;28;20012;-62
2022/12/01 02:36:05;;;;;;;;;;;;;;;5.25;100.00;102669.81;5000883;28;19957;-62
2022/12/01 02:38:36;;;;;;;;;;;;;;;5.26;100.00;102666.94;5008191;28;20000;-61
2022/12/01 02:41:11;;;;;;;;;;;;;;;5.28;100.00;102669.53;4989897;28;20271;-61
2022/12/01 02:43:45;;;;;;;;;;;;;;;5.26;100.00;102671.53;5015382;28;19913;-60
2022/12/01 02:46:10;;;;;;;;;;;;;;;5.25;100.00;102667.94;5013767;28;20127;-60
2022/12/01 02:48:37;;;;;;;;;;;;;;;5.44;100.00;102665.13;5009419;28;19909;-60
2022/12/01 02:51:09;;;;;;;;;;;;;;;5.38;100.00;102667.59;5010852;28;20364;-60
2022/12/01 02:53:34;;;;;;;;;;;;;;;5.28;100.00;102664.06;5008812;28;20008;-62
2022/12/01 02:56:00;;;;;;;;;;;;;;;5.47;100.00;102659.38;5026061;28;20058;-61
2022/12/01 02:58:25;;;;;;;;;;;;;;;5.30;100.00;102662.91;5025607;28;19928;-61
2022/12/01 03:01:09;;;;;;;;;;;;;;;5.27;100.00;102665.94;5012346;28;19995;-63
2022/12/01 03:03:58;;;;;;;;;;;;;;;5.27;100.00;102668.66;5018031;28;19917;-60
2022/12/01 03:06:30;;;;;;;;;;;;;;;5.26;100.00;102674.25;5028434;28;19970;-60
2022/12/01 03:09:11;;;;;;;;;;;;;;;5.37;100.00;102665.88;5021634;28;19917;-61
2022/12/01 03:11:56;;;;;;;;;;;;;;;5.32;100.00;102663.63;5010229;28;19917;-60
2022/12/01 03:14:29;;;;;;;;;;;;;;;5.28;100.00;102675.81;5003637;28;19921;-61
2022/12/01 03:16:56;;;;;;;;;;;;;;;5.55;100.00;102672.22;5021063;28;19921;-61
2022/12/01 03:19:30;;;;;;;;;;;;;;;5.37;100.00;102668.59;5020549;28;19921;-60
2022/12/01 03:22:03;;;;;;;;;;;;;;;5.81;100.00;102666.88;5013413;28;20221;-61
2022/12/01 03:24:31;;;;;;;;;;;;;;;5.45;100.00;102665.97;5012645;28;20012;-62
2022/12/01 03:26:58;;;;;;;;;;;;;;;5.54;100.00;102670.50;5013440;28;20332;-62
2022/12/01 03:29:25;;;;;;;;;;;;;;;5.32;100.00;102666.34;5011470;28;19953;-61
2022/12/01 03:31:53;;;;;;;;;;;;;;;5.55;100.00;102666.78;5029102;28;19923;-62
2022/12/01 03:34:29;;;;;;;;;;;;;;;5.98;100.00;102670.66;5031844;28;19913;-60
2022/12/01 03:36:57;;;;;;;;;;;;;;;5.39;100.00;102670.16;5013998;28;19971;-61
2022/12/01 03:39:26;;;;;;;;;;;;;;;5.34;100.00;102671.63;5011868;28;20052;-61
2022/12/01 03:41:55;;;;;;;;;;;;;;;5.26;100.00;102668.78;5010864;28;19924;-61
2022/12/01 03:44:21;;;;;;;;;;;;;;;5.47;100.00;102666.66;5026056;28;19908;-61
2022/12/01 03:46:50;;;;;;;;;;;;;;;5.24;100.00;102668.09;5030917;28;19974;-60
2022/12/01 03:49:16;;;;;;;;;;;;;;;5.21;100.00;102664.66;5021072;28;19919;-61
2022/12/01 03:51:57;;;;;;;;;;;;;;;5.25;100.00;102667.94;5027324;28;19917;-60
2022/12/01 03:54:32;;;;;;;;;;;;;;;5.26;100.00;102666.06;5011967;28;19909;-62
2022/12/01 03:57:01;;;;;;;;;;;;;;;5.20;100.00;102673.84;5026792;28;19921;-62
2022/12/01 03:59:27;;;;;;;;;;;;;;;5.20;100.00;102672.97;5017725;28;20004;-61
2022/12/01 04:01:53;;;;;;;;;;;;;;;5.34;100.00;102677.09;4992407;28;19961;-61
2022/12/01 04:04:18;;;;;;;;;;;;;;;5.23;100.00;102674.56;4992820;28;19964;-60
2022/12/01 04:06:45;;;;;;;;;;;;;;;5.24;100.00;102679.84;5008965;28;20376;-62
2022/12/01 04:09:10;;;;;;;;;;;;;;;5.19;100.00;102677.56;5011456;28;19924;-60
2022/12/01 04:14:19;;;;;;;;;;;;;;;5.96;100.00;102667.22;5016450;28;19927;-61
2022/12/01 04:16:44;;;;;;;;;;;;;;;5.62;100.00;102673.31;5012091;28;19909;-61
2022/12/01 04:19:10;;;;;;;;;;;;;;;5.47;100.00;102673.00;5010566;28;19932;-60
2022/12/01 04:21:35;;;;;;;;;;;;;;;5.21;100.00;102683.72;5030131;28;19913;-61
2022/12/01 04:24:01;;;;;;;;;;;;;;;5.20;100.00;102678.44;5019778;28;19917;-62
2022/12/01 04:26:27;;;;;;;;;;;;;;;5.17;100.00;102679.59;5010784;28;20496;-61
2022/12/01 04:28:52;;;;;;;;;;;;;;;5.20;100.00;102673.84;5022151;28;19948;-61
2022/12/01 04:31:17;;;;;;;;;;;;;;;5.18;100.00;102677.75;5014050;28;20011;-61
2022/12/01 04:33:42;;;;;;;;;;;;;;;5.17;100.00;102684.16;5022721;28;19921;-62
2022/12/01 04:36:08;;;;;;;;;;;;;;;5.17;100.00;102678.72;5011399;28;20000;-61
2022/12/01 04:38:35;;;;;;;;;;;;;;;5.19;100.00;102679.44;5011068;28;19917;-61
2022/12/01 04:41:01;;;;;;;;;;;;;;;5.18;100.00;102673.16;5009704;28;19960;-61
2022/12/01 04:43:26;;;;;;;;;;;;;;;5.23;100.00;102671.84;5007911;28;20346;-61
2022/12/01 04:45:51;;;;;;;;;;;;;;;5.18;100.00;102675.88;5009834;28;19917;-60
2022/12/01 04:48:16;;;;;;;;;;;;;;;5.19;100.00;102674.00;5022139;28;20272;-61
2022/12/01 04:50:41;;;;;;;;;;;;;;;5.19;100.00;102672.13;5031096;28;20283;-61
2022/12/01 04:53:07;;;;;;;;;;;;;;;5.20;100.00;102682.00;5018276;28;19976;-61
2022/12/01 04:55:35;;;;;;;;;;;;;;;5.21;100.00;102667.38;5011237;28;20287;-61
2022/12/01 04:58:03;;;;;;;;;;;;;;;5.24;100.00;102673.56;5009959;28;19959;-61
2022/12/01 05:00:28;;;;;;;;;;;;;;;5.20;100.00;102675.72;5020857;28;19940;-61
2022/12/01 05:02:54;;;;;;;;;;;;;;;5.21;100.00;102675.53;5014479;28;19921;-60
2022/12/01 05:05:19;;;;;;;;;;;;;;;5.21;100.00;102675.53;5011079;28;19952;-60
2022/12/01 05:07:44;;;;;;;;;;;;;;;5.21;100.00;102670.09;5015395;28;20374;-61
2022/12/01 05:10:11;;;;;;;;;;;;;;;5.23;100.00;102680.00;5029868;28;19917;-61
2022/12/01 05:12:36;;;;;;;;;;;;;;;5.23;100.00;102683.59;5029634;28;19933;-61
2022/12/01 05:15:01;;;;;;;;;;;;;;;5.23;100.00;102672.69;5008181;28;19923;-61
2022/12/01 05:17:29;;;;;;;;;;;;;;;5.23;100.00;102672.69;5010192;28;19918;-60
2022/12/01 05:22:38;;;;;;;;;;;;;;;5.21;100.00;102675.53;5013241;28;19939;-60
2022/12/01 05:25:04;;;;;;;;;;;;;;;5.34;100.00;102675.22;5022130;28;20378;-61
2022/12/01 05:27:29;;;;;;;;;;;;;;;5.22;100.00;102673.72;5016470;28;19967;-60
2022/12/01 05:29:54;;;;;;;;;;;;;;;5.29;100.00;102679.41;5015333;28;19921;-62
2022/12/01 05:32:19;;;;;;;;;;;;;;;6.04;100.00;102678.22;5010211;28;19937;-62
2022/12/01 05:34:44;;;;;;;;;;;;;;;5.39;100.00;102677.50;5009348;28;19918;-62
2022/12/01 05:37:09;;;;;;;;;;;;;;;5.27;100.00;102676.84;5017673;28;19974;-62
2022/12/01 05:39:35;;;;;;;;;;;;;;;5.29;100.00;102676.69;5024695;28;20015;-61
2022/12/01 05:42:00;;;;;;;;;;;;;;;5.18;100.00;102686.75;5009482;28;20327;-63
2022/12/01 05:44:25;;;;;;;;;;;;;;;5.66;100.00;102680.19;5009529;28;19917;-62
2022/12/01 05:46:50;;;;;;;;;;;;;;;5.72;100.00;102675.97;5010261;28;19909;-64
2022/12/01 05:49:15;;;;;;;;;;;;;;;5.88;100.00;102675.28;5010313;28;20744;-61
2022/12/01 05:51:41;;;;;;;;;;;;;;;5.53;100.00;102679.72;5009710;28;19913;-62
2022/12/01 05:54:06;;;;;;;;;;;;;;;5.32;100.00;102690.88;5009421;28;19917;-62
2022/12/01 05:56:32;;;;;;;;;;;;;;;5.29;100.00;102688.44;5007368;28;19970;-61
2022/12/01 05:58:57;;;;;;;;;;;;;;;5.57;100.00;102682.97;5008623;28;19917;-62
2022/12/01 06:01:22;;;;;;;;;;;;;;;5.27;100.00;102689.56;5009539;28;19925;-61
2022/12/01 06:03:47;;;;;;;;;;;;;;;5.35;100.00;102686.97;5009341;28;19925;-63
2022/12/01 06:06:12;;;;;;;;;;;;;;;5.68;100.00;102689.06;4991470;28;19924;-63
2022/12/01 06:08:37;;;;;;;;;;;;;;;5.66;100.00;102685.63;5009157;28;20382;-62
2022/12/01 06:11:03;;;;;;;;;;;;;;;5.49;100.00;102694.63;5009018;28;20111;-62
2022/12/01 06:13:28;;;;;;;;;;;;;;;5.29;100.00;102691.16;5008699;28;19948;-62
2022/12/01 06:15:57;;;;;;;;;;;;;;;5.50;100.00;102695.50;5009470;28;19967;-61
2022/12/01 06:18:23;;;;;;;;;;;;;;;5.75;100.00;102685.72;5009427;28;19914;-62
2022/12/01 06:20:48;;;;;;;;;;;;;;;5.41;100.00;102694.53;5009481;28;20015;-62
2022/12/01 06:23:13;;;;;;;;;;;;;;;5.61;100.00;102687.97;5008800;28;19913;-62
2022/12/01 06:25:38;;;;;;;;;;;;;;;5.67;100.00;102690.06;5008782;28;19913;-62
2022/12/01 06:28:03;;;;;;;;;;;;;;;5.80;100.00;102695.16;4991167;28;19952;-62
2022/12/01 06:30:28;;;;;;;;;;;;;;;5.67;100.00;102694.66;4990175;28;19924;-62
2022/12/01 06:32:54;;;;;;;;;;;;;;;5.66;100.00;102692.94;5009423;28;19918;-61
2022/12/01 06:35:19;;;;;;;;;;;;;;;5.30;100.00;102692.00;5008800;28;19924;-61
2022/12/01 06:37:44;;;;;;;;;;;;;;;5.64;100.00;102692.25;5009485;28;19913;-62
2022/12/01 06:40:10;;;;;;;;;;;;;;;5.40;100.00;102693.66;5007990;28;20343;-61
2022/12/01 06:42:35;;;;;;;;;;;;;;;5.72;100.00;102690.47;5008738;28;19914;-62
2022/12/01 06:45:00;;;;;;;;;;;;;;;5.30;100.00;102695.59;5007754;28;20418;-62
2022/12/01 06:47:26;;;;;;;;;;;;;;;5.66;100.00;102707.44;5008848;28;19913;-62
2022/12/01 06:49:51;;;;;;;;;;;;;;;5.21;100.00;102705.50;5008321;28;19964;-62
2022/12/01 06:52:16;;;;;;;;;;;;;;;5.07;100.00;102703.31;5008796;28;19917;-62
2022/12/01 06:54:41;;;;;;;;;;;;;;;5.10;100.00;102707.56;5008251;28;19913;-59
2022/12/01 06:57:06;;;;;;;;;;;;;;;5.38;100.00;102712.06;5008222;28;20251;-60
2022/12/01 06:59:31;;;;;;;;;;;;;;;5.11;100.00;102706.56;5007682;28;19960;-60
2022/12/01 07:01:57;;;;;;;;;;;;;;;5.06;100.00;102720.63;4990807;28;19913;-60
2022/12/01 07:04:22;;;;;;;;;;;;;;;5.36;100.00;102715.91;5008362;28;20034;-59
2022/12/01 07:06:47;;;;;;;;;;;;;;;5.36;100.00;102718.66;5008847;28;19949;-59
2022/12/01 07:09:12;;;;;;;;;;;;;;;5.60;100.00;102720.81;5007724;28;19940;-59
2022/12/01 07:11:37;;;;;;;;;;;;;;;5.24;100.00;102728.03;5008419;28;20409;-60
2022/12/01 07:14:02;;;;;;;;;;;;;;;5.57;100.00;102724.69;5002984;28;19922;-60
2022/12/01 07:16:28;;;;;;;;;;;;;;;5.49;100.00;102729.22;4988913;28;19929;-60
2022/12/01 07:18:53;;;;;;;;;;;;;;;5.45;100.00;102724.06;4988830;28;19929;-58
2022/12/01 07:21:18;;;;;;;;;;;;;;;5.37;100.00;102733.97;4988628;28;19953;-59
2022/12/01 07:23:43;;;;;;;;;;;;;;;5.40;100.00;102736.41;4988427;28;19914;-60
2022/12/01 07:26:08;;;;;;;;;;;;;;;5.28;100.00;102732.19;4988376;28;19913;-60
2022/12/01 07:28:34;;;;;;;;;;;;;;;5.13;100.00;102738.09;4987835;28;19917;-58
2022/12/01 07:31:00;;;;;;;;;;;;;;;5.10;100.00;102735.66;4988287;28;19944;-61
2022/12/01 07:33:25;;;;;;;;;;;;;;;5.34;100.00;102740.59;4988986;28;19914;-62
2022/12/01 07:35:52;;;;;;;;;;;;;;;5.39;100.00;102737.44;4988353;28;20253;-63
2022/12/01 07:38:17;;;;;;;;;;;;;;;5.44;100.00;102740.56;5005260;28;19913;-62
2022/12/01 07:40:42;;;;;;;;;;;;;;;5.44;100.00;102740.56;5007984;28;19924;-60
2022/12/01 07:43:07;;;;;;;;;;;;;;;5.55;100.00;102736.78;5007131;28;20250;-60
2022/12/01 07:45:33;;;;;;;;;;;;;;;5.66;100.00;102739.28;5007877;28;19939;-60
2022/12/01 07:47:58;;;;;;;;;;;;;;;5.35;100.00;102739.59;5008022;28;20284;-60
2022/12/01 07:50:23;;;;;;;;;;;;;;;5.63;100.00;102743.19;5008328;28;19917;-59
2022/12/01 07:52:49;;;;;;;;;;;;;;;5.71;100.00;102743.28;5008089;28;20003;-61
2022/12/01 07:55:15;;;;;;;;;;;;;;;5.30;100.00;102750.06;5007598;28;19918;-59
2022/12/01 07:57:40;;;;;;;;;;;;;;;5.21;100.00;102751.81;5008159;28;19920;-59
2022/12/01 08:00:06;;;;;;;;;;;;;;;5.17;100.00;102755.88;5006825;28;19913;-59
2022/12/01 08:02:32;;;;;;;;;;;;;;;5.18;100.00;102757.59;5007822;28;19914;-59
2022/12/01 08:04:57;;;;;;;;;;;;;;;5.20;100.00;102755.56;5009843;28;20308;-61
2022/12/01 08:07:22;;;;;;;;;;;;;;;5.20;100.00;102766.47;5012214;28;20012;-59
2022/12/01 08:09:48;;;;;;;;;;;;;;;5.23;100.00;102759.88;5010910;28;19917;-59
2022/12/01 08:12:13;;;;;;;;;;;;;;;5.25;100.00;102757.84;5011119;28;19989;-60
2022/12/01 08:14:38;;;;;;;;;;;;;;;5.27;100.00;102771.31;5010573;28;19913;-60
2022/12/01 08:17:03;;;;;;;;;;;;;;;5.29;100.00;102764.72;5011160;28;19913;-60
2022/12/01 08:19:28;;;;;;;;;;;;;;;5.31;100.00;102761.84;5009712;28;19940;-60
2022/12/01 08:21:53;;;;;;;;;;;;;;;5.34;100.00;102767.00;5011410;28;20027;-59
2022/12/01 08:24:19;;;;;;;;;;;;;;;5.35;100.00;102771.44;5010930;28;19937;-60
2022/12/01 08:26:44;;;;;;;;;;;;;;;5.41;100.00;102766.22;5010766;28;20417;-59
2022/12/01 08:29:09;;;;;;;;;;;;;;;5.38;100.00;102776.59;5009919;28;20571;-59
2022/12/01 08:31:36;;;;;;;;;;;;;;;5.38;100.00;102762.97;5011047;28;19913;-59
2022/12/01 08:34:04;;;;;;;;;;;;;;;5.42;100.00;102769.81;5010619;28;19913;-59
2022/12/01 08:36:29;;;;;;;;;;;;;;;5.44;100.00;102765.09;5010937;28;19921;-60
2022/12/01 08:38:54;;;;;;;;;;;;;;;5.47;100.00;102770.22;5010690;28;19913;-59
2022/12/01 08:41:20;;;;;;;;;;;;;;;5.62;100.00;102765.13;5010769;28;19935;-60
2022/12/01 08:43:45;;;;;;;;;;;;;;;5.49;100.00;102770.94;5009786;28;19909;-59
2022/12/01 08:46:12;;;;;;;;;;;;;;;5.48;100.00;102774.69;5010882;28;20412;-59
2022/12/01 08:48:37;;;;;;;;;;;;;;;5.91;100.00;102771.31;5010481;28;20442;-59
2022/12/01 08:51:07;;;;;;;;;;;;;;;5.66;100.00;102767.41;5010481;28;19913;-59
2022/12/01 08:53:33;;;;;;;;;;;;;;;5.60;100.00;102773.47;5010376;28;20016;-60
2022/12/01 08:56:00;;;;;;;;;;;;;;;5.55;100.00;102773.06;5010299;28;19995;-60
2022/12/01 08:58:25;;;;;;;;;;;;;;;5.72;100.00;102774.13;5009865;28;20036;-60
2022/12/01 09:00:50;;;;;;;;;;;;;;;5.60;100.00;102778.06;5010154;28;20004;-61
2022/12/01 09:03:15;;;;;;;;;;;;;;;5.63;100.00;102785.97;5010676;28;20056;-59
2022/12/01 09:05:41;;;;;;;;;;;;;;;5.67;100.00;102782.75;5010243;28;19937;-60
2022/12/01 09:10:51;;;;;;;;;;;;;;;5.90;100.00;102785.09;5010294;28;19968;-59
2022/12/01 09:13:16;;;;;;;;;;;;;;;5.90;100.00;102779.63;5009075;28;19920;-60
2022/12/01 09:15:41;;;;;;;;;;;;;;;5.87;100.00;102779.94;5008995;28;19913;-59
2022/12/01 09:18:06;;;;;;;;;;;;;;;6.45;100.00;102776.84;4995646;28;19948;-59
2022/12/01 09:20:31;;;;;;;;;;;;;;;6.12;100.00;102778.38;4990300;28;20008;-59
2022/12/01 09:22:56;;;;;;;;;;;;;;;5.95;100.00;102789.09;4994783;28;19917;-59
2022/12/01 09:25:22;;;;;;;;;;;;;;;6.04;100.00;102790.06;4989857;28;19963;-60
2022/12/01 09:27:47;;;;;;;;;;;;;;;6.10;100.00;102783.13;4992093;28;19922;-60
2022/12/01 09:30:12;;;;;;;;;;;;;;;6.17;100.00;102792.41;4993792;28;19971;-59
2022/12/01 09:32:37;;;;;;;;;;;;;;;6.33;100.00;102789.84;4998090;28;19921;-59
2022/12/01 09:35:03;;;;;;;;;;;;;;;6.42;100.00;102791.63;4997048;28;19959;-59
2022/12/01 09:37:28;;;;;;;;;;;;;;;6.52;100.00;102788.84;5005915;28;19917;-60
2022/12/01 09:39:53;;;;;;;;;;;;;;;6.55;100.00;102790.41;4997072;28;19968;-59
2022/12/01 09:42:25;;;;;;;;;;;;;;;6.52;100.00;102791.56;4991759;28;22825;-59
2022/12/01 09:44:52;;;;;;;;;;;;;;;6.55;100.00;102791.25;4992289;28;19968;-60
2022/12/01 09:47:22;;;;;;;;;;;;;;;6.63;100.00;102788.59;4989520;28;20399;-59
2022/12/01 09:50:05;;;;;;;;;;;;;;;6.73;100.00;102789.34;5004101;28;19924;-59
2022/12/01 09:52:42;;;;;;;;;;;;;;;7.02;100.00;102780.03;4995696;28;20357;-59
2022/12/01 09:55:17;;;;;;;;;;;;;;;7.50;100.00;102771.28;4993089;28;19921;-59
2022/12/01 09:57:45;;;;;;;;;;;;;;;8.04;100.00;102770.97;4997115;28;19918;-62
2022/12/01 10:00:16;;;;;;;;;;;;;;;8.13;100.00;102777.31;4993175;28;20095;-59
2022/12/01 10:02:51;;;;;;;;;;;;;;;7.94;99.79;102771.09;4991482;28;19917;-59
2022/12/01 10:05:19;;;;;;;;;;;;;;;7.54;100.00;102769.91;4982273;28;19917;-60
2022/12/01 10:07:47;;;;;;;;;;;;;;;7.28;100.00;102772.69;5002739;28;19917;-60
2022/12/01 10:10:14;;;;;;;;;;;;;;;7.08;100.00;102768.47;4989076;28;19914;-60
2022/12/01 10:12:41;;;;;;;;;;;;;;;7.13;100.00;102767.97;4990146;28;20336;-60
2022/12/01 10:15:09;;;;;;;;;;;;;;;6.94;100.00;102766.31;4989331;28;19917;-59
2022/12/01 10:17:40;;;;;;;;;;;;;;;6.82;100.00;102768.44;5004159;28;19929;-59
2022/12/01 10:20:12;;;;;;;;;;;;;;;7.04;100.00;102769.78;5007460;28;19921;-59
2022/12/01 10:22:38;;;;;;;;;;;;;;;7.91;100.00;102760.50;5010464;28;19917;-60
2022/12/01 10:25:29;;;;;;;;;;;;;;;8.23;100.00;102759.72;5016188;28;20031;-59
2022/12/01 10:28:05;;;;;;;;;;;;;;;8.49;97.15;102756.88;5005553;28;19971;-59
2022/12/01 10:30:38;;;;;;;;;;;;;;;8.21;97.15;102763.63;5003403;28;19924;-60
2022/12/01 10:33:13;;;;;;;;;;;;;;;8.02;99.91;102756.59;5006967;28;20335;-60
2022/12/01 10:35:39;;;;;;;;;;;;;;;8.20;92.93;102757.31;5007485;28;20028;-58
2022/12/01 10:38:06;;;;;;;;;;;;;;;8.16;88.65;102757.81;5016295;28;19996;-61
2022/12/01 10:40:34;;;;;;;;;;;;;;;7.67;90.91;102755.78;5002957;28;19921;-62
2022/12/01 10:42:59;;;;;;;;;;;;;;;7.57;93.32;102749.59;4997951;28;19922;-60
2022/12/01 10:45:25;;;;;;;;;;;;;;;7.56;93.34;102747.91;5013751;28;19968;-60
2022/12/01 10:48:14;;;;;;;;;;;;;;;7.70;95.17;102738.19;5012968;28;19927;-61
2022/12/01 10:50:40;;;;;;;;;;;;;;;7.95;95.59;102739.97;5007225;28;19952;-60
2022/12/01 10:53:06;;;;;;;;;;;;;;;8.07;95.25;102746.88;5012985;28;19917;-60
2022/12/01 10:55:33;;;;;;;;;;;;;;;8.30;96.46;102732.50;5009188;28;20322;-60
2022/12/01 10:58:00;;;;;;;;;;;;;;;8.29;95.45;102737.13;5018022;28;19917;-61
2022/12/01 11:00:27;;;;;;;;;;;;;;;8.21;96.25;102741.72;5007488;28;19917;-61
2022/12/01 11:02:52;;;;;;;;;;;;;;;7.98;97.14;102744.28;5012219;28;19917;-60
2022/12/01 11:05:21;;;;;;;;;;;;;;;7.85;97.81;102736.53;5016681;28;19914;-60
2022/12/01 11:07:46;;;;;;;;;;;;;;;7.75;97.55;102733.06;5007552;28;20347;-60
2022/12/01 11:10:17;;;;;;;;;;;;;;;7.66;97.21;102743.16;5010967;28;19924;-59
2022/12/01 11:12:45;;;;;;;;;;;;;;;7.80;98.01;102734.28;5019680;28;19947;-61
2022/12/01 11:15:42;;;;;;;;;;;;;;;7.96;92.50;102736.25;5000451;28;19925;-60
2022/12/01 11:18:21;;;;;;;;;;;;;;;7.89;92.98;102731.59;4961511;28;19917;-60
2022/12/01 11:20:47;;;;;;;;;;;;;;;7.67;92.48;102735.81;4996693;28;19918;-59
2022/12/01 11:23:23;;;;;;;;;;;;;;;7.47;95.09;102730.59;5005753;28;20012;-60
2022/12/01 11:25:54;;;;;;;;;;;;;;;7.42;96.13;102730.22;5008895;28;19921;-61
2022/12/01 11:28:19;;;;;;;;;;;;;;;7.40;95.82;102729.53;5002314;28;19929;-60
2022/12/01 11:30:44;;;;;;;;;;;;;;;7.66;96.35;102723.16;5007211;28;19925;-60
2022/12/01 11:33:13;;;;;;;;;;;;;;;7.77;92.39;102720.09;5007216;28;19917;-61
2022/12/01 11:35:45;;;;;;;;;;;;;;;7.52;94.70;102720.00;5012051;28;19913;-60
2022/12/01 11:38:18;;;;;;;;;;;;;;;7.58;95.49;102717.66;5004094;28;19921;-60
2022/12/01 11:40:45;;;;;;;;;;;;;;;7.61;94.81;102715.44;5007369;28;19921;-60
2022/12/01 11:43:20;;;;;;;;;;;;;;;7.59;94.63;102706.53;5020612;28;19978;-61
2022/12/01 11:45:46;;;;;;;;;;;;;;;7.59;93.28;102708.41;5025792;28;19920;-61
2022/12/01 11:48:11;;;;;;;;;;;;;;;8.07;88.55;102707.69;5010835;28;19917;-60
2022/12/01 11:50:37;;;;;;;;;;;;;;;7.51;93.21;102706.53;5009532;28;19929;-61
2022/12/01 11:53:02;;;;;;;;;;;;;;;7.92;88.40;102709.38;5016922;28;19924;-61
2022/12/01 11:55:29;;;;;;;;;;;;;;;7.45;90.59;102701.69;5011381;28;20283;-62
2022/12/01 11:57:56;;;;;;;;;;;;;;;7.93;86.22;102705.63;5009255;28;20346;-60
2022/12/01 12:00:22;;;;;;;;;;;;;;;7.31;91.18;102699.59;5012197;28;20332;-61
2022/12/01 12:02:54;;;;;;;;;;;;;;;7.26;92.98;102697.34;5006367;28;19960;-60
2022/12/01 12:05:25;;;;;;;;;;;;;;;7.35;91.50;102698.22;5009827;28;19905;-61
2022/12/01 12:08:11;;;;;;;;;;;;;;;7.24;91.39;102697.50;5008743;28;20657;-62
2022/12/01 12:10:54;;;;;;;;;;;;;;;7.32;92.28;102693.09;5010324;28;19967;-60
2022/12/01 12:13:35;;;;;;;;;;;;;;;7.49;89.34;102694.88;4993219;28;19920;-60
2022/12/01 12:16:03;;;;;;;;;;;;;;;7.68;86.26;102691.88;5008393;28;20301;-60
2022/12/01 12:18:28;;;;;;;;;;;;;;;7.23;88.79;102692.19;5012126;28;19917;-61
2022/12/01 12:21:03;;;;;;;;;;;;;;;7.10;91.31;102687.19;5005443;28;19984;-60
2022/12/01 12:23:28;;;;;;;;;;;;;;;7.53;88.17;102685.31;5002809;28;20423;-61
2022/12/01 12:25:53;;;;;;;;;;;;;;;7.11;89.66;102688.06;5007432;28;19948;-59
2022/12/01 12:28:21;;;;;;;;;;;;;;;7.36;87.81;102687.16;5008644;28;19936;-61
2022/12/01 12:31:05;;;;;;;;;;;;;;;7.22;87.57;102688.63;5010791;28;19956;-60
2022/12/01 12:33:34;;;;;;;;;;;;;;;6.95;91.31;102678.75;5010202;28;19937;-60
2022/12/01 12:36:09;;;;;;;;;;;;;;;6.94;92.34;102681.63;4995875;28;20011;-61
2022/12/01 12:38:37;;;;;;;;;;;;;;;6.93;93.10;102683.50;4996909;28;19921;-61
2022/12/01 12:41:04;;;;;;;;;;;;;;;6.93;93.37;102685.38;5000478;28;19917;-61
2022/12/01 12:43:42;;;;;;;;;;;;;;;6.93;93.74;102682.66;5015593;28;19928;-61
2022/12/01 12:46:10;;;;;;;;;;;;;;;6.94;94.40;102676.16;5008992;28;19914;-61
2022/12/01 12:49:10;;;;;;;;;;;;;;;7.46;91.10;102676.09;5005238;28;20649;-62
2022/12/01 12:51:39;;;;;;;;;;;;;;;7.39;90.36;102664.94;4937171;28;20545;-62